Archival Weather

Phoenix Goodyear

Goodyear, Arizona (KGYR)

Report from: Wednesday, December 6, 2023 6:47 PM MST
Current time: Wednesday, April 24, 2024 10:56 AM MST

Current weather – Weather history – Daily summaries
Weather forecast

Temperature21.0°C (69.8°F)
Dew point3.0°C (37.4°F)
Winds 4 kts (2.1 m/s, 4.6 mph) Southwest (220°)
Visibility10 mi. (16.1 km)
Clouds Few clouds 20,000 ft. (6,096 m)
Altimeter30.00 in.Hg (1016 mB)
Relative humidity31 %
Density altitude726 ft. (221 m)
Flight conditions Visual Meteorological Conditions
Raw dataKGYR 070147Z 22004KT 10SM FEW200 21/03 A3000
An error has occurred. This application may no longer respond until reloaded. Reload 🗙